LGTS - Thessaloniki/Mik, Greece
Distance from station: 15km
: 03/03/2024 15:20
Partly Cloudy
Partly Cloudy

: 15 km/h
: 18°C
: 11°C
: 64%
: 1013 hPa
Clouds: Partly Cloudy
Visibility: 10 km
Cloud details: Partly Cloudy 610 m
2024/03/03 13:20 LGTS 031320Z 17008KT 140V200 9999 SCT020 18/11 Q1013 NOSIG
LGKZ - Kozani (civ/Army, Greece
Distance from station: 113km
: 03/03/2024 15:20


: 9 km/h
: 16°C
: -4°C
: 25%
: 1012 hPa
2024/03/03 13:20 LGKZ 031320Z AUTO 12005KT 080V180 //// // ////// 16/M04 Q1012 RE//
 
LGKV - Kavala/Chrisoupo, Greece
Distance from station: 132km
: 03/03/2024 15:20
Few Clouds
Few Clouds

: 11 km/h
: 16°C
: 9°C
: 63%
: 1013 hPa
Clouds: Few Clouds
Visibility: 10 km
Cloud details: Few Clouds 549 m
2024/03/03 13:20 LGKV 031320Z 21006KT 9999 FEW018 16/09 Q1013
LGBL - Nea Anchialos, Greece
Distance from station: 156km
: 03/03/2024 15:20
Few Clouds
Few Clouds

: 13 km/h
: 17°C
: 9°C
: 59%
: 1012 hPa
Clouds: Few Clouds
Visibility: 10 km
Cloud details: Few Clouds 762 m
2024/03/03 13:20 LGBL 031320Z 10007KT 9999 FEW025 17/09 Q1012
 
LGSK - Skiathos Island, Greece
Distance from station: 161km
: 03/03/2024 13:50
NOT Current
Few Clouds
Few Clouds
   varies
: varies 4 km/h
: 18°C
: 13°C
: 73%
: 1013 hPa
Clouds: Few Clouds
Visibility: 10 km
Cloud details: Few Clouds 549 m
2024/03/03 11:50 LGSK 031150Z VRB02KT 9999 FEW018 18/13 Q1013
LWSK - Skopje/Petrovac, Macedonia
Distance from station: 195km
: 03/03/2024 15:20
Few Clouds
Few Clouds

: 6 km/h
: 19°C
: 7°C
: 46%
: 1011 hPa
Clouds: Few Clouds
Visibility: 10 km
Cloud details: Few Clouds 1524 m
2024/03/03 13:20 LWSK 031320Z 04003KT 320V090 9999 FEW050 19/07 Q1011 NOSIG
 
LGLM - Limnos Island Ar, Greece
Distance from station: 196km
: 03/03/2024 15:20
Few Clouds
Few Clouds
   calm
:
: 15°C
: 8°C
: 63%
: 1013 hPa
Clouds: Few Clouds
Visibility: 10 km
Cloud details: Few Clouds 549 m
2024/03/03 13:20 LGLM 031320Z 00000KT 9999 FEW018 15/08 Q1013
LWOH - Ohrid, Macedonia
Distance from station: 202km
: 03/03/2024 15:30
Few Clouds
Few Clouds

: 9 km/h
: 12°C
: 3°C
: 54%
: 1012 hPa
Clouds: Few Clouds
Visibility: 10 km
Cloud details: Few Clouds 1402 m
2024/03/03 13:30 LWOH 031330Z 16005KT 9999 FEW046 12/03 Q1012
 
LGSY - Skiros, Greece
Distance from station: 217km
: 03/03/2024 14:50
Few Clouds
Few Clouds

: 11 km/h
: 17°C
: 11°C
: 68%
: 1013 hPa
Clouds: Few Clouds
Visibility: 10 km
Cloud details: Few Clouds 610 m
2024/03/03 12:50 LGSY 031250Z 07006KT 9999 FEW020 17/11 Q1013 RMK SCT180 BLU
LGIO - Ioannina, Greece
Distance from station: 218km
: 03/03/2024 15:20

   calm
:
: 14°C
: 6°C
: 59%
: 1014 hPa
2024/03/03 13:20 LGIO 031320Z AUTO 00000KT //// // ////// 14/06 Q1014 RE//
 
LBPD - Plovdiv, Bulgaria
Distance from station: 222km
: 03/03/2024 15:30
Mostly Cloudy
Mostly Cloudy
   varies
: varies 6 km/h
: 14°C
: 7°C
: 63%
: 1013 hPa
Clouds: Mostly Cloudy
Visibility: 10 km
Cloud details: Mostly Cloudy 792 m
2024/03/03 13:30 LBPD 031330Z AUTO VRB03KT 9999 BKN026/// 14/07 Q1013 NOSIG
LBSF - Sofia (observato, Bulgaria
Distance from station: 229km
: 03/03/2024 15:30
Partly Cloudy
Partly Cloudy
   varies
: varies 2 km/h
: 13°C
: 5°C
: 59%
: 1012 hPa
Clouds: Partly Cloudy
Visibility: 10 km
Cloud details: Few Clouds 396 m
Partly Cloudy 1676 m
2024/03/03 13:30 LBSF 031330Z VRB01KT 9999 FEW013 SCT055 13/05 Q1012 NOSIG
 
LGAL - Alexandroupolis, Greece
Distance from station: 242km
: 03/03/2024 15:20
Partly Cloudy
Partly Cloudy

: 9 km/h
: 16°C
: 10°C
: 68%
: 1014 hPa
Clouds: Partly Cloudy
Visibility: 10 km
Cloud details: Partly Cloudy 762 m
2024/03/03 13:20 LGAL 031320Z 11005KT 9999 SCT025 16/10 Q1014
LGPZ - Preveza/Aktion, Greece
Distance from station: 274km
: 03/03/2024 15:20
Mostly Cloudy
Mostly Cloudy

: 15 km/h
: 16°C
: 11°C
: 72%
: 1015 hPa
Clouds: Mostly Cloudy
Visibility: 10 km
Cloud details: Mostly Cloudy 914 m
2024/03/03 13:20 LGPZ 031320Z 23008KT 9999 BKN030 16/11 Q1015
 
BKPR - Prishtina, Yugoslavia
Distance from station: 280km
: 03/03/2024 15:30
Partly Cloudy
Partly Cloudy

: 19 km/h
: 15°C
: 3°C
: 45%
: 1011 hPa
Clouds: Partly Cloudy
Visibility: 10 km
Cloud details: Partly Cloudy 1524 m
2024/03/03 13:30 BKPR 031330Z 24010KT 9999 SCT050 15/03 Q1011 NOSIG
LGEL - Elefsis (hel-Afb, Greece
Distance from station: 284km
: 03/03/2024 15:20
Few Clouds
Few Clouds

: 15 km/h
: 19°C
: 5°C
: 40%
: 1013 hPa
Clouds: Few Clouds
Visibility: 10 km
Cloud details: Few Clouds 762 m
2024/03/03 13:20 LGEL 031320Z 19008KT 9999 FEW025 19/05 Q1013
 
LATI - Tirana, Albania
Distance from station: 291km
: 03/03/2024 15:20
Mostly Cloudy
Mostly Cloudy

: 15 km/h
: 17°C
: 9°C
: 59%
: 1013 hPa
Clouds: Mostly Cloudy
Visibility: 10 km
Cloud details: Partly Cloudy 1219 m
Mostly Cloudy 2134 m
2024/03/03 13:20 LATI 031320Z 28008KT 240V330 9999 SCT040 BKN070 17/09 Q1013 NOSIG
LGKR - Ioannis Kapodist, Greece
Distance from station: 292km
: 03/03/2024 15:20
Partly Cloudy
Partly Cloudy

: 22 km/h
: 17°C
: 12°C
: 73%
: 1013 hPa
Clouds: Partly Cloudy
Visibility: 10 km
Cloud details: Few Clouds 457 m
Partly Cloudy 762 m
2024/03/03 13:20 LGKR 031320Z 15012KT 9999 FEW015 SCT025 17/12 Q1013 NOSIG